Аэропорт
Душанбе (UTDD)

 UTDD / DYU
ЗЦ Центральная Азия
Душанбе (UTDD)
Душанбе (UTDD)
 38.54330, 68.82500  / 2575 ft

 UTDD 300500Z VRB01MPS 6000 NSC 12/M02 Q1026 R09/D NOSIG RMK QFE701/0934
 TAF UTDD 300300Z 3004/3016 VRB02MPS 6000 FEW066 SCT120 TEMPO 3004/3005 3100 BR FU TEMPO 3011/3014 27005MPS
UTDD charts
показать схемы
Название сценария Тип сценария Flight Simulator 9 Flight Simulator X Prepar3D v2 Prepar3D v3 Prepar3D v4 Prepar3D v5 xPlane
Recommended scenery for FS9 бесплатный
Recommended scenery for FSX бесплатный
Recommended scenery for xPlane бесплатный


2020 © VATRUS division (Privacy Policy)